logo
Rechercher aéroport 
image banner adimage banner adimage banner ad
image banner ad

SBMA - João Correa Da Rocha

Situé à Marabá, Brazil

ICAO - SBMA, IATA - MAB

Données fournies par Airmate  

Information générale

Coordonnées: S5°22'5" W49°8'17"
Élévation : 357 feet MSL.
Variation magnétique : -20.713747341° East
Voir autres Aéroports à Pará

Données opérationnelles

Special qualification required
Heure actuelle UTC:
Heure actuelle locale:
Météo
METAR: SBMA 171700Z 25003KT 9999 SCT020 BKN080 34/19 Q1010
Voir NOTAMs / SUP AIP / TFR affectant cet aéroport [VIEW]
Fréquences de communication: [VIEW]

Pistes:

Identifiant RWYQFULongueur (ft)Largeur (ft)SurfaceLDA (ft)
256562148ASPH
076562148ASPH

Coordonnées de l'aéroport

Adresse: Marabá Brazil

Vue satellite de SBMA